This is the latest recevied weather packets stored in our database for station/object OE5OVL-13. If no packets are shown the sender has not sent any weather packets the latest 10 day(s).
| Time | Temp. | Humidity | Pressure | Rain* | Wind** | Luminosity | Snow |
|---|---|---|---|---|---|---|---|
| 1777572061 | 16.67° C | 27% | 725.2 hPa | 0 mm | - | - | - |
| 1777571150 | 18.33° C | 24% | 727 hPa | 0 mm | - | - | - |
| 1777570238 | 21.67° C | 20% | 730.5 hPa | 0 mm | - | - | - |
| 1777569326 | 28.89° C | 14% | 739.3 hPa | 0 mm | - | - | - |
| 1777568414 | 30° C | 14% | 740.5 hPa | 0 mm | - | - | - |
| 1777567503 | 29.44° C | 14% | 739.9 hPa | 0 mm | - | - | - |
| 1777566591 | 28.33° C | 15% | 738.8 hPa | 0 mm | - | - | - |
| 1777565679 | 28.89° C | 15% | 739 hPa | 0 mm | - | - | - |
| 1777564767 | 28.33° C | 16% | 738.5 hPa | 0 mm | - | - | - |
| 1777563856 | 28.33° C | 15% | 738.4 hPa | 0 mm | - | - | - |
| 1777562944 | 28.33° C | 16% | 738.4 hPa | 0 mm | - | - | - |
| 1777562032 | 27.22° C | 16% | 737.2 hPa | 0 mm | - | - | - |
| 1777561119 | 27.78° C | 17% | 737.8 hPa | 0 mm | - | - | - |
| 1777560207 | 26.67° C | 16% | 736.8 hPa | 0 mm | - | - | - |
| 1777559295 | 27.22° C | 18% | 737 hPa | 0 mm | - | - | - |
| 1777558383 | 26.11° C | 18% | 735.8 hPa | 0 mm | - | - | - |
| 1777556558 | 25.56° C | 23% | 735.2 hPa | 0 mm | - | - | - |
| 1777554735 | 23.89° C | 24% | 733.2 hPa | 0 mm | - | - | - |
| 1777553823 | 22.22° C | 23% | 731.7 hPa | 0 mm | - | - | - |
| 1777552911 | 21.11° C | 25% | 730 hPa | 0 mm | - | - | - |
| 1777552000 | 20.56° C | 25% | 729.5 hPa | 0 mm | - | - | - |
| 1777551088 | 19.44° C | 25% | 728.3 hPa | 0 mm | - | - | - |
| 1777550176 | 19.44° C | 28% | 728 hPa | 0 mm | - | - | - |
| 1777549264 | 18.33° C | 29% | 727.3 hPa | 0 mm | - | - | - |
| 1777548353 | 17.22° C | 29% | 726 hPa | 0 mm | - | - | - |
* Rain latest hour (hover to see other rain measurements)
** Current wind speed in m/s (hover to see current wind gust speed)